createdAt,value
2023-01-05T00:00:55.678Z,18.89
2023-01-05T00:03:23.404Z,18.91
2023-01-05T00:05:50.979Z,19.27
2023-01-05T00:08:18.550Z,18.95
2023-01-05T00:11:05.113Z,18.91
2023-01-05T00:13:50.006Z,18.44
2023-01-05T00:16:35.668Z,18.79
2023-01-05T00:19:20.827Z,18.10
2023-01-05T00:22:05.726Z,18.90
2023-01-05T00:24:33.284Z,19.28
2023-01-05T00:27:02.210Z,19.19
2023-01-05T00:29:29.842Z,18.87
2023-01-05T00:31:57.452Z,18.66
2023-01-05T00:34:25.076Z,18.32
2023-01-05T00:36:52.699Z,19.09
2023-01-05T00:39:20.252Z,18.32
2023-01-05T00:41:47.811Z,18.18
2023-01-05T00:44:17.699Z,18.18
2023-01-05T00:46:45.396Z,18.29
2023-01-05T00:49:12.993Z,18.29
2023-01-05T00:51:40.676Z,18.62
2023-01-05T00:54:08.628Z,18.89
2023-01-05T00:56:36.208Z,18.71
2023-01-05T00:59:03.728Z,18.57
2023-01-05T01:01:32.907Z,17.98
2023-01-05T01:04:00.671Z,18.51
2023-01-05T01:06:28.991Z,18.56
2023-01-05T01:08:56.559Z,18.72
2023-01-05T01:11:24.103Z,18.43
2023-01-05T01:13:51.635Z,18.42
2023-01-05T01:16:19.263Z,18.45
2023-01-05T01:18:48.245Z,18.68
2023-01-05T01:21:15.982Z,18.54
2023-01-05T01:23:43.810Z,18.35
2023-01-05T01:26:12.181Z,18.20
2023-01-05T01:28:39.765Z,18.28
2023-01-05T01:31:07.583Z,18.46
2023-01-05T01:33:35.274Z,18.48
2023-01-05T01:36:05.891Z,18.27
2023-01-05T01:38:33.583Z,18.67
2023-01-05T01:41:01.431Z,18.31
2023-01-05T01:43:42.435Z,18.35
2023-01-05T01:46:10.076Z,18.49
2023-01-05T01:48:37.950Z,18.45
2023-01-05T01:51:08.418Z,18.32
2023-01-05T01:53:36.938Z,17.59
2023-01-05T01:56:05.079Z,18.07
2023-01-05T01:58:32.883Z,18.35
2023-01-05T02:01:01.404Z,18.68
2023-01-05T02:03:29.191Z,18.39
2023-01-05T02:05:56.838Z,18.63
2023-01-05T02:08:31.192Z,18.27
2023-01-05T02:11:02.086Z,18.07
2023-01-05T02:13:33.063Z,18.26
2023-01-05T02:16:04.067Z,18.65
2023-01-05T02:18:36.720Z,18.83
2023-01-05T02:21:10.363Z,18.68
2023-01-05T02:23:59.948Z,18.49
2023-01-05T02:26:51.533Z,18.28
2023-01-05T02:29:32.205Z,18.41
2023-01-05T02:32:03.106Z,18.06
2023-01-05T02:34:31.559Z,18.00
2023-01-05T02:37:00.579Z,18.34
2023-01-05T02:39:29.700Z,17.88
2023-01-05T02:41:58.782Z,17.79
2023-01-05T02:44:28.804Z,18.20
2023-01-05T02:47:00.278Z,17.64
2023-01-05T02:49:29.315Z,17.94
2023-01-05T02:51:57.054Z,18.45
2023-01-05T02:54:25.432Z,17.35
2023-01-05T02:56:54.182Z,17.74
2023-01-05T02:59:23.235Z,17.40
2023-01-05T03:01:52.025Z,17.59
2023-01-05T03:04:20.475Z,18.07
2023-01-05T03:06:53.077Z,17.63
2023-01-05T03:09:20.745Z,18.24
2023-01-05T03:12:08.202Z,17.79
2023-01-05T03:14:36.844Z,17.54
2023-01-05T03:17:04.723Z,18.13
2023-01-05T03:19:40.343Z,17.36
2023-01-05T03:22:32.067Z,16.87
2023-01-05T03:25:17.364Z,17.00
2023-01-05T03:28:02.398Z,17.68
2023-01-05T03:30:49.905Z,17.84
2023-01-05T03:33:37.214Z,17.96
2023-01-05T03:36:06.814Z,18.45
2023-01-05T03:38:36.640Z,18.16
2023-01-05T03:41:05.177Z,18.56
2023-01-05T03:43:34.496Z,18.28
2023-01-05T03:46:04.262Z,18.30
2023-01-05T03:48:31.878Z,17.94
2023-01-05T03:50:59.457Z,17.76
2023-01-05T03:53:27.682Z,17.43
2023-01-05T03:55:56.636Z,17.16
2023-01-05T03:58:25.766Z,17.45
2023-01-05T04:00:53.518Z,17.68
2023-01-05T04:03:29.422Z,17.48
2023-01-05T04:05:59.477Z,17.55
2023-01-05T04:08:29.616Z,17.67
2023-01-05T04:11:00.874Z,17.62
2023-01-05T04:13:28.674Z,16.78
2023-01-05T04:15:56.603Z,16.72
2023-01-05T04:18:24.404Z,17.21
2023-01-05T04:20:52.947Z,16.96
2023-01-05T04:23:20.721Z,17.30
2023-01-05T04:25:48.481Z,17.46
2023-01-05T04:28:22.685Z,17.37
2023-01-05T04:30:50.644Z,17.38
2023-01-05T04:33:18.670Z,17.40
2023-01-05T04:35:46.385Z,17.07
2023-01-05T04:38:14.500Z,16.92
2023-01-05T04:40:42.305Z,16.83
2023-01-05T04:43:11.225Z,17.52
2023-01-05T04:45:40.213Z,16.76
2023-01-05T04:48:08.865Z,15.98
2023-01-05T04:50:39.144Z,15.95
2023-01-05T04:53:08.190Z,16.69
2023-01-05T04:55:38.793Z,15.96
2023-01-05T04:58:11.742Z,16.65
2023-01-05T05:00:42.182Z,15.94
2023-01-05T05:03:10.014Z,15.97
2023-01-05T05:05:38.221Z,15.65
2023-01-05T05:08:06.279Z,15.38
2023-01-05T05:10:35.217Z,15.70
2023-01-05T05:13:02.867Z,15.73
2023-01-05T05:15:31.560Z,15.93
2023-01-05T05:18:07.050Z,16.88
2023-01-05T05:20:36.821Z,15.64
2023-01-05T05:23:04.472Z,15.83
2023-01-05T05:25:34.193Z,16.72
2023-01-05T05:28:01.789Z,16.33
2023-01-05T05:30:29.383Z,15.90
2023-01-05T05:32:56.982Z,15.86
2023-01-05T05:35:25.940Z,16.29
2023-01-05T05:37:56.553Z,16.12
2023-01-05T05:40:24.333Z,16.26
2023-01-05T05:42:51.937Z,16.35
2023-01-05T05:45:19.474Z,16.29
2023-01-05T05:47:47.113Z,15.90
2023-01-05T05:50:14.680Z,16.02
2023-01-05T05:52:43.576Z,16.32
2023-01-05T05:55:11.173Z,16.16
2023-01-05T05:57:38.730Z,15.87
2023-01-05T06:00:06.859Z,16.08
2023-01-05T06:02:40.480Z,16.73
2023-01-05T06:05:08.490Z,16.15
2023-01-05T06:07:36.061Z,15.75
2023-01-05T06:10:05.177Z,15.90
2023-01-05T06:12:33.012Z,16.03
2023-01-05T06:15:01.244Z,16.45
2023-01-05T06:17:28.915Z,16.20
2023-01-05T06:19:56.457Z,16.45
2023-01-05T06:22:23.999Z,16.31
2023-01-05T06:24:51.526Z,16.45
2023-01-05T06:27:20.386Z,16.66
2023-01-05T06:29:48.043Z,16.31
2023-01-05T06:32:15.621Z,16.18
2023-01-05T06:34:44.991Z,16.49
2023-01-05T06:37:12.624Z,16.30
2023-01-05T06:42:37.228Z,16.61
2023-01-05T06:45:04.992Z,17.08
2023-01-05T06:47:32.767Z,16.76
2023-01-05T06:50:00.363Z,16.23
2023-01-05T06:52:27.927Z,16.08
2023-01-05T06:54:55.837Z,16.73
2023-01-05T06:57:24.289Z,17.31
2023-01-05T06:59:53.199Z,16.93
2023-01-05T07:02:20.983Z,16.80
2023-01-05T07:04:48.563Z,16.28
2023-01-05T07:07:16.453Z,16.68
2023-01-05T07:09:45.013Z,16.78
2023-01-05T07:12:14.573Z,16.38
2023-01-05T07:14:42.605Z,16.12
2023-01-05T07:17:12.595Z,17.42
2023-01-05T07:19:40.739Z,17.43
2023-01-05T07:22:08.406Z,17.09
2023-01-05T07:24:37.088Z,16.66
2023-01-05T07:27:09.568Z,17.30
2023-01-05T07:29:37.799Z,17.38
2023-01-05T07:32:05.854Z,16.58
2023-01-05T07:34:34.870Z,17.43
2023-01-05T07:37:02.460Z,18.16
2023-01-05T07:39:30.234Z,17.74
2023-01-05T07:41:57.831Z,17.59
2023-01-05T07:44:27.136Z,17.70
2023-01-05T07:46:54.923Z,17.85
2023-01-05T07:49:22.438Z,17.75
2023-01-05T07:51:51.305Z,17.18
2023-01-05T07:54:18.844Z,18.42
2023-01-05T07:56:46.346Z,17.40
2023-01-05T07:59:13.906Z,17.37
2023-01-05T08:01:41.536Z,18.77
2023-01-05T08:04:09.963Z,18.36
2023-01-05T08:06:37.571Z,18.69
2023-01-05T08:09:20.687Z,18.03
2023-01-05T08:11:48.320Z,18.02
2023-01-05T08:14:15.846Z,18.51
2023-01-05T08:16:43.842Z,18.93
2023-01-05T08:19:11.979Z,18.17
2023-01-05T08:21:39.629Z,18.54
2023-01-05T08:24:08.893Z,18.80
2023-01-05T08:26:36.547Z,18.76
2023-01-05T08:29:04.172Z,18.44
2023-01-05T08:31:37.049Z,17.58
2023-01-05T08:34:04.862Z,17.63
2023-01-05T08:36:32.938Z,17.21
2023-01-05T08:39:01.661Z,16.92
2023-01-05T08:41:31.827Z,16.86
2023-01-05T08:44:00.000Z,16.86
2023-01-05T08:46:28.367Z,17.19
2023-01-05T08:48:56.584Z,17.99
2023-01-05T08:51:24.223Z,18.16
2023-01-05T08:53:51.855Z,18.13
2023-01-05T08:56:19.621Z,17.22
2023-01-05T08:58:48.664Z,16.86
2023-01-05T09:01:17.078Z,17.52
2023-01-05T09:03:44.835Z,17.28
2023-01-05T09:06:12.836Z,16.77
2023-01-05T09:08:41.540Z,17.58
2023-01-05T09:11:09.518Z,17.64
2023-01-05T09:13:37.101Z,18.41
2023-01-05T09:16:07.177Z,18.55
2023-01-05T09:18:35.189Z,17.88
2023-01-05T09:21:02.768Z,16.88
2023-01-05T09:23:30.323Z,18.14
2023-01-05T09:25:57.930Z,17.79
2023-01-05T09:28:25.546Z,18.07
2023-01-05T09:30:53.173Z,18.50
2023-01-05T09:33:22.178Z,18.23
2023-01-05T09:35:54.225Z,18.44
2023-01-05T09:38:22.641Z,18.37
2023-01-05T09:40:50.215Z,18.29
2023-01-05T09:43:22.181Z,18.53
2023-01-05T09:45:49.844Z,19.45
2023-01-05T09:48:17.460Z,18.35
2023-01-05T09:50:46.401Z,17.90
2023-01-05T09:53:14.220Z,17.40
2023-01-05T09:55:41.792Z,17.48
2023-01-05T09:58:11.784Z,18.35
2023-01-05T10:00:39.425Z,19.00
2023-01-05T10:03:07.522Z,18.94
2023-01-05T10:05:35.264Z,17.57
2023-01-05T10:08:05.226Z,18.35
2023-01-05T10:10:37.903Z,18.04
2023-01-05T10:13:05.555Z,17.06
2023-01-05T10:15:38.300Z,18.08
2023-01-05T10:18:13.200Z,17.50
2023-01-05T10:20:46.802Z,18.09
2023-01-05T10:23:18.158Z,17.03
2023-01-05T10:25:47.766Z,17.49
2023-01-05T10:28:22.832Z,17.47
2023-01-05T10:30:51.917Z,17.98
2023-01-05T10:33:28.172Z,18.44
2023-01-05T10:36:10.431Z,18.08
2023-01-05T10:38:44.583Z,18.46
2023-01-05T10:41:14.275Z,18.55
2023-01-05T10:43:43.382Z,18.34
2023-01-05T10:48:58.503Z,18.15
2023-01-05T10:51:26.263Z,18.49
2023-01-05T10:53:55.169Z,18.65
2023-01-05T10:56:24.821Z,19.11
2023-01-05T10:59:07.054Z,18.45
2023-01-05T11:01:34.916Z,18.10
2023-01-05T11:04:28.866Z,17.79
2023-01-05T11:06:51.240Z,18.99
2023-01-05T11:09:22.567Z,18.64
2023-01-05T11:11:54.212Z,17.80
2023-01-05T11:14:21.851Z,18.39
2023-01-05T11:16:50.174Z,18.38
2023-01-05T11:19:18.165Z,18.35
2023-01-05T11:21:45.987Z,18.26
2023-01-05T11:24:31.245Z,17.25
2023-01-05T11:26:59.646Z,18.65
2023-01-05T11:29:27.216Z,18.91
2023-01-05T11:31:55.412Z,18.55
2023-01-05T11:34:39.119Z,17.73
2023-01-05T11:37:08.651Z,17.49
2023-01-05T11:39:39.938Z,17.99
2023-01-05T11:45:20.534Z,18.36
2023-01-05T11:47:48.503Z,18.03
2023-01-05T11:50:18.150Z,18.56
2023-01-05T11:52:46.172Z,19.22
2023-01-05T11:55:31.804Z,18.94
2023-01-05T11:58:09.786Z,19.11
2023-01-05T12:00:40.163Z,19.80
2023-01-05T12:03:12.349Z,20.22
2023-01-05T12:05:42.061Z,19.12
2023-01-05T12:08:11.713Z,18.96
2023-01-05T12:10:44.634Z,19.10
2023-01-05T12:13:17.085Z,19.64
2023-01-05T12:15:56.123Z,20.05
2023-01-05T12:18:30.890Z,20.28
2023-01-05T12:20:58.623Z,19.62
2023-01-05T12:23:33.686Z,19.57
2023-01-05T12:26:04.337Z,19.38
2023-01-05T12:28:41.467Z,19.19
2023-01-05T12:34:17.654Z,20.83
2023-01-05T12:36:53.008Z,19.16
2023-01-05T12:39:31.841Z,19.84
2023-01-05T12:42:02.940Z,19.29
2023-01-05T12:44:34.813Z,18.48
2023-01-05T12:47:05.891Z,18.75
2023-01-05T12:49:34.144Z,19.73
2023-01-05T12:52:06.782Z,18.72
2023-01-05T12:54:38.965Z,19.05
2023-01-05T12:57:08.706Z,18.72
2023-01-05T12:59:37.789Z,18.91
2023-01-05T13:02:09.260Z,19.60
2023-01-05T13:04:46.255Z,19.14
2023-01-05T13:07:16.695Z,19.95
2023-01-05T13:09:44.224Z,20.49
2023-01-05T13:12:13.630Z,20.71
2023-01-05T13:14:42.240Z,20.79
2023-01-05T13:17:12.245Z,20.78
2023-01-05T13:19:46.116Z,20.40
2023-01-05T13:22:16.834Z,20.65
2023-01-05T13:24:46.825Z,20.93
2023-01-05T13:27:15.738Z,20.60
2023-01-05T13:29:45.064Z,20.48
2023-01-05T13:32:19.342Z,20.62
2023-01-05T13:34:49.931Z,20.29
2023-01-05T13:37:23.949Z,20.61
2023-01-05T13:39:55.819Z,20.61
2023-01-05T13:42:37.765Z,20.01
2023-01-05T13:45:08.862Z,20.51
2023-01-05T13:48:07.237Z,20.47
2023-01-05T13:50:41.129Z,21.02
2023-01-05T13:53:11.118Z,21.12
2023-01-05T13:55:39.419Z,21.31
2023-01-05T13:58:08.339Z,20.88
2023-01-05T14:00:36.583Z,21.18
2023-01-05T14:03:07.819Z,21.17
2023-01-05T14:05:37.418Z,20.51
2023-01-05T14:08:05.454Z,20.66
2023-01-05T14:10:33.619Z,21.53
2023-01-05T14:13:01.761Z,20.84
2023-01-05T14:15:33.273Z,21.17
2023-01-05T14:18:02.281Z,21.01
2023-01-05T14:20:34.787Z,20.05
2023-01-05T14:23:02.928Z,20.90
2023-01-05T14:25:50.438Z,20.71
2023-01-05T14:28:22.641Z,20.08
2023-01-05T14:30:52.127Z,20.76
2023-01-05T14:33:20.319Z,20.37
2023-01-05T14:35:47.893Z,20.03
2023-01-05T14:38:17.484Z,20.39
2023-01-05T14:40:45.618Z,20.72
2023-01-05T14:43:27.335Z,20.69
2023-01-05T14:45:59.093Z,20.58
2023-01-05T14:48:29.299Z,20.90
2023-01-05T14:51:07.921Z,20.47
2023-01-05T14:53:43.036Z,20.34
2023-01-05T14:56:18.109Z,20.79
2023-01-05T14:58:55.647Z,20.60
2023-01-05T15:01:27.275Z,20.53
2023-01-05T15:03:57.410Z,19.57
2023-01-05T15:06:26.392Z,19.86
2023-01-05T15:09:14.948Z,19.06
2023-01-05T15:11:45.950Z,19.00
2023-01-05T15:14:34.808Z,18.73
2023-01-05T15:17:14.968Z,18.86
2023-01-05T15:19:49.651Z,18.88
2023-01-05T15:22:37.784Z,18.81
2023-01-05T15:25:09.058Z,18.92
2023-01-05T15:27:46.384Z,19.87
2023-01-05T15:30:21.780Z,20.09
2023-01-05T15:32:52.982Z,19.91
2023-01-05T15:35:21.584Z,20.11
2023-01-05T15:37:52.059Z,20.28
2023-01-05T15:40:30.786Z,20.10
2023-01-05T15:42:59.181Z,20.19
2023-01-05T15:45:27.939Z,19.47
2023-01-05T15:47:56.916Z,19.36
2023-01-05T15:50:25.586Z,20.08
2023-01-05T15:52:54.300Z,20.27
2023-01-05T15:55:21.886Z,20.37
2023-01-05T15:57:53.070Z,19.27
2023-01-05T16:00:21.542Z,19.10
2023-01-05T16:02:49.163Z,18.98
2023-01-05T16:05:18.658Z,18.98
2023-01-05T16:07:46.818Z,19.26
2023-01-05T16:10:18.189Z,19.11
2023-01-05T16:12:45.950Z,19.75
2023-01-05T16:15:14.508Z,19.43
2023-01-05T16:17:42.184Z,18.98
2023-01-05T16:20:12.694Z,19.42
2023-01-05T16:22:42.224Z,19.77
2023-01-05T16:25:12.259Z,19.77
2023-01-05T16:27:40.959Z,19.94
2023-01-05T16:30:16.650Z,19.62
2023-01-05T16:32:44.686Z,20.06
2023-01-05T16:35:25.434Z,19.72
2023-01-05T16:38:20.182Z,19.34
2023-01-05T16:41:06.579Z,19.69
2023-01-05T16:43:36.349Z,20.43
2023-01-05T16:46:26.667Z,20.35
2023-01-05T16:48:55.008Z,20.45
2023-01-05T16:51:22.834Z,19.69
2023-01-05T16:53:51.217Z,19.89
2023-01-05T16:56:19.679Z,19.55
2023-01-05T16:58:48.824Z,19.47
2023-01-05T17:01:24.228Z,19.52
2023-01-05T17:03:52.046Z,20.14
2023-01-05T17:06:24.108Z,20.06
2023-01-05T17:08:51.719Z,19.55
2023-01-05T17:11:19.274Z,20.23
2023-01-05T17:13:49.236Z,20.03
2023-01-05T17:16:17.020Z,19.58
2023-01-05T17:18:44.621Z,19.56
2023-01-05T17:21:14.533Z,20.27
2023-01-05T17:23:46.893Z,20.04
2023-01-05T17:26:16.017Z,20.28
2023-01-05T17:28:43.590Z,19.86
2023-01-05T17:33:45.033Z,19.73
2023-01-05T17:36:12.568Z,18.61
2023-01-05T17:38:40.156Z,19.17
2023-01-05T17:41:07.723Z,19.61
2023-01-05T17:43:35.312Z,18.93
2023-01-05T17:46:02.918Z,19.80
2023-01-05T17:48:31.913Z,20.44
2023-01-05T17:51:00.350Z,19.78
2023-01-05T17:53:27.886Z,19.33
2023-01-05T17:55:55.494Z,19.69
2023-01-05T17:58:25.288Z,19.68
2023-01-05T18:00:54.366Z,19.65
2023-01-05T18:03:22.922Z,19.38
2023-01-05T18:05:53.447Z,18.65
2023-01-05T18:08:21.238Z,18.46
2023-01-05T18:10:48.878Z,18.45
2023-01-05T18:13:19.605Z,18.47
2023-01-05T18:15:52.431Z,19.13
2023-01-05T18:18:21.207Z,19.20
2023-01-05T18:20:51.073Z,18.42
2023-01-05T18:23:20.348Z,18.03
2023-01-05T18:25:47.943Z,18.49
2023-01-05T18:28:15.533Z,18.65
2023-01-05T18:30:43.321Z,18.68
2023-01-05T18:35:43.619Z,18.87
2023-01-05T18:38:11.665Z,18.86
2023-01-05T18:40:40.683Z,18.63
2023-01-05T18:43:08.336Z,18.62
2023-01-05T18:45:39.937Z,18.51
2023-01-05T18:48:07.928Z,18.92
2023-01-05T18:50:36.321Z,18.31
2023-01-05T18:53:03.988Z,18.35
2023-01-05T18:55:31.506Z,19.50
2023-01-05T18:58:00.629Z,19.68
2023-01-05T19:00:28.266Z,19.06
2023-01-05T19:02:55.904Z,18.64
2023-01-05T19:05:23.691Z,19.40
2023-01-05T19:07:52.365Z,19.43
2023-01-05T19:10:19.972Z,19.30
2023-01-05T19:12:47.662Z,19.21
2023-01-05T19:15:16.656Z,18.76
2023-01-05T19:17:44.213Z,19.23
2023-01-05T19:20:12.215Z,19.30
2023-01-05T19:22:41.588Z,19.02
2023-01-05T19:25:09.517Z,18.98
2023-01-05T19:27:38.888Z,18.94
2023-01-05T19:30:06.848Z,18.92
2023-01-05T19:32:36.928Z,19.21
2023-01-05T19:35:05.623Z,19.51
2023-01-05T19:37:34.509Z,19.57
2023-01-05T19:40:02.681Z,19.38
2023-01-05T19:42:31.660Z,19.22
2023-01-05T19:44:59.572Z,19.02
2023-01-05T19:47:27.188Z,19.05
2023-01-05T19:49:56.481Z,19.40
2023-01-05T19:52:29.481Z,19.22
2023-01-05T19:54:57.263Z,19.56
2023-01-05T19:57:25.163Z,19.62
2023-01-05T19:59:52.793Z,19.22
2023-01-05T20:02:20.418Z,19.46
2023-01-05T20:04:48.128Z,19.73
2023-01-05T20:07:17.144Z,19.23
2023-01-05T20:09:44.862Z,19.51
2023-01-05T20:12:15.349Z,19.15
2023-01-05T20:14:43.266Z,19.12
2023-01-05T20:17:11.477Z,19.69
2023-01-05T20:19:39.404Z,19.89
2023-01-05T20:22:08.409Z,19.49
2023-01-05T20:24:37.660Z,19.65
2023-01-05T20:27:06.021Z,19.71
2023-01-05T20:29:33.777Z,20.10
2023-01-05T20:32:02.503Z,20.26
2023-01-05T20:34:32.098Z,20.56
2023-01-05T20:37:00.045Z,20.11
2023-01-05T20:39:27.607Z,20.67
2023-01-05T20:41:56.541Z,20.11
2023-01-05T20:44:25.359Z,20.56
2023-01-05T20:46:53.969Z,20.36
2023-01-05T20:49:21.858Z,20.16
2023-01-05T20:51:49.509Z,20.00
2023-01-05T20:54:17.368Z,20.43
2023-01-05T20:56:46.380Z,20.38
2023-01-05T20:59:16.820Z,20.09
2023-01-05T21:01:45.344Z,20.21
2023-01-05T21:04:13.076Z,20.42
2023-01-05T21:06:40.983Z,20.70
2023-01-05T21:09:09.269Z,21.22
2023-01-05T21:11:37.362Z,20.13
2023-01-05T21:14:06.181Z,20.55
2023-01-05T21:16:35.965Z,20.28
2023-01-05T21:19:03.626Z,20.44
2023-01-05T21:21:31.867Z,21.13
2023-01-05T21:23:59.437Z,20.88
2023-01-05T21:26:26.997Z,20.84
2023-01-05T21:28:55.313Z,20.92
2023-01-05T21:31:23.799Z,21.31
2023-01-05T21:33:56.276Z,21.58
2023-01-05T21:36:24.494Z,20.60
2023-01-05T21:39:01.602Z,19.04
2023-01-05T21:41:49.005Z,19.59
2023-01-05T21:44:16.886Z,19.45
2023-01-05T21:46:44.562Z,19.77
2023-01-05T21:49:14.277Z,19.43
2023-01-05T21:52:04.874Z,19.73
2023-01-05T21:54:49.837Z,19.88
2023-01-05T21:57:17.660Z,20.14
2023-01-05T21:59:45.343Z,20.03
2023-01-05T22:02:13.862Z,20.13
2023-01-05T22:04:42.982Z,20.10
2023-01-05T22:07:10.696Z,19.60
2023-01-05T22:09:38.419Z,20.00
2023-01-05T22:12:07.211Z,19.33
2023-01-05T22:14:34.877Z,19.51
2023-01-05T22:17:02.579Z,19.41
2023-01-05T22:19:30.116Z,18.98
2023-01-05T22:21:59.173Z,20.04
2023-01-05T22:24:26.719Z,19.92
2023-01-05T22:26:54.545Z,19.45
2023-01-05T22:29:22.287Z,19.65
2023-01-05T22:31:50.658Z,19.61
2023-01-05T22:34:18.319Z,19.74
2023-01-05T22:36:45.927Z,18.92
2023-01-05T22:39:14.952Z,19.11
2023-01-05T22:41:42.584Z,19.84
2023-01-05T22:44:10.135Z,20.00
2023-01-05T22:46:37.731Z,19.65
2023-01-05T22:49:05.319Z,20.12
2023-01-05T22:51:33.430Z,20.16
2023-01-05T22:54:01.138Z,20.02
2023-01-05T22:56:31.805Z,19.60
2023-01-05T22:58:59.578Z,19.72
2023-01-05T23:01:27.854Z,19.83
2023-01-05T23:03:55.975Z,20.82
2023-01-05T23:06:23.630Z,20.76
2023-01-05T23:08:51.756Z,20.89
2023-01-05T23:11:20.249Z,21.47
2023-01-05T23:13:49.321Z,22.13
2023-01-05T23:16:16.895Z,21.44
2023-01-05T23:18:44.679Z,21.93
2023-01-05T23:21:13.093Z,21.89
2023-01-05T23:23:40.732Z,21.53
2023-01-05T23:26:09.209Z,20.86
2023-01-05T23:28:36.814Z,21.20
2023-01-05T23:31:06.021Z,21.29
2023-01-05T23:33:34.218Z,20.47
2023-01-05T23:36:01.905Z,21.64
2023-01-05T23:38:29.529Z,21.24
2023-01-05T23:40:57.569Z,21.70
2023-01-05T23:43:25.612Z,21.15
2023-01-05T23:45:53.565Z,20.91
2023-01-05T23:48:22.476Z,20.05
2023-01-05T23:50:50.076Z,20.87
2023-01-05T23:53:17.623Z,20.67
2023-01-05T23:55:45.176Z,20.63
2023-01-05T23:58:12.742Z,20.31
